Portada
METAR-TAF:

METAR-TAF

Aeropuertos :

Thomas County Airport

Thedford, Nebraska, Estados Unidos

latitud: 41-57-43N, longitud: 100-34-08W, altitud: 892 m

Observación

El informe se hizo hace 23 minutos, a las 06:35 UTC
Viento 11 kt del sureste
Temperatura 21°C
Humedad 73%
Presión 1006 hPa
Visibilidad: 16.1 km
Cielo despejado

METAR: KTIF 070635Z AUTO 14011KT 10SM CLR 21/16 A2972 RMK AO2 T02120160

Hora: 01:58 (06:58 UTC)


TAF: falta

Observaciones y pronósticos meteorológicos de más de 4000 aeropuertos (mensajes METAR y TAF).

Los puntos amarillos y rojos representan las estaciones disponibles.

Ponga el ratón en el punto deseado para ver el nombre de la estación.

Haga clic para ver las observaciones y los pronósticos meteorológicos.

Para cambiar el mapa : haga clic en los botones verdes con una cruz de color negro para hacer un zoom, en el botón verde con un guión para alejar o en las flechas verdes para mapas adyacentes.


METAR-TAF: